CheckWX is a tool to help pilots better visualize weather data.  It is not intended as a substitute for an official pre-flight weather briefing.

02:24:57 UTC

LFOE TAF
Évreux-Fauville (BA 105) Air Base Airport
Évreux/Fauville, France
TAF LFOE 071400Z 0715/0815 24010KT 9999 BKN020 BKN030 TEMPO 0716/0724 BKN010 BKN020 BECMG 0801/0803 23015G25KT BECMG 0804/0806 23020G30KT 4000 -RA BKN009 OVC015 BECMG 0810/0812 27020G30KT 9999 NSW BKN025 BKN040

Dec-7@
15:00 UTC

Dec-7 @ 15:00 UTC

Dec-8@
01:00 UTC

Dec-8 @ 01:00 UTC

TAF LFOE 071400Z 0715/0815 24010KT 9999 BKN020 BKN030

Expired

Wind
  • 240° at 10 KTS
Cloud Levels
  • Broken at 2,000' AGL
  • Broken at 3,000' AGL

Dec-7@
16:00 UTC

Dec-7 @ 16:00 UTC

Dec-8@
00:00 UTC

Dec-8 @ 00:00 UTC

TEMPO 0716/0724 BKN010 BKN020

Expired

Cloud Levels
  • Broken at 1,000' AGL
  • Broken at 2,000' AGL

Dec-8@
01:00 UTC

Dec-8 @ 01:00 UTC

Dec-8@
04:00 UTC

Dec-8 @ 04:00 UTC

BECMG 0801/0803 23015G25KT

Becoming

Becoming Conditions expected by Sun, Dec 8, 2019 @ 03:00 UTC

Wind
  • 230° at 15 KTS
  • {Gusting to 25 KTS
Cloud Levels
  • Broken at 2,000' AGL
  • Broken at 3,000' AGL

Dec-8@
04:00 UTC

Dec-8 @ 04:00 UTC

Dec-8@
10:00 UTC

Dec-8 @ 10:00 UTC

BECMG 0804/0806 23020G30KT 4000 -RA BKN009 OVC015

Becoming

Becoming Conditions expected by Sun, Dec 8, 2019 @ 06:00 UTC

Wind
  • 230° at 20 KTS
  • {Gusting to 30 KTS
Conditions
Light Rain
Cloud Levels
  • Broken at 900' AGL
  • Overcast at 1,500' AGL

Dec-8@
10:00 UTC

Dec-8 @ 10:00 UTC

Dec-8@
15:00 UTC

Dec-8 @ 15:00 UTC

BECMG 0810/0812 27020G30KT 9999 NSW BKN025 BKN040

Becoming

Becoming Conditions expected by Sun, Dec 8, 2019 @ 12:00 UTC

Wind
  • 270° at 20 KTS
  • {Gusting to 30 KTS
Conditions
No significant weather
Cloud Levels
  • Broken at 2,500' AGL
  • Broken at 4,000' AGL